Wilson Gaeta — 8PTS — position and weather

sailwx.info

Track history (hours):
 
Tides and Currents Weather Stations Pressure Air Temp Water Temp Dewpoint Dewpoint Depression Visibility Wind Speed Wind Dir Waves Ship Positions

Wilson Gaeta

Last reported at 2018-Feb-15 12:16 UTC. Time now 2018-Feb-19 00:19 UTC.
Position N 39°24' W 009°51'.

Length 88 m; draft 5.5 m.

Type: Ship. MMSI: 314237000.

Date/timePositionNaut miles runAvg speedWind from/ knotsBaromVisibWave heightAir tempDewpointWater temp
2018-Feb-15 12:16N 39°24' W 009°51'3 8.9
2018-Feb-15 11:53N 39°21' W 009°51'4 9.4
2018-Feb-15 11:30N 39°17' W 009°51'5 9.2
2018-Feb-15 11:00N 39°13' W 009°51'5 9.1
2018-Feb-15 10:30N 39°08' W 009°51'4 9.0
2018-Feb-15 10:01N 39°04' W 009°51'5 9.1
2018-Feb-15 09:30N 38°59' W 009°52'5 9.4
2018-Feb-15 08:59N 38°55' W 009°52'4 9.1
2018-Feb-15 08:30N 38°50' W 009°52'5 9.1
2018-Feb-15 08:00N 38°46' W 009°52'4 9.0
2018-Feb-15 07:31N 38°41' W 009°51'5 9.3
2018-Feb-15 07:00N 38°37' W 009°50'5 9.2
2018-Feb-15 06:30N 38°32' W 009°48'5 9.1
2018-Feb-15 06:00N 38°28' W 009°47'4 8.7
2018-Feb-15 05:30N 38°23' W 009°46'5 8.8
2018-Feb-15 04:54N 38°18' W 009°44'4 8.8
2018-Feb-15 04:28N 38°14' W 009°43'240 8.0
2018-Feb-13 22:36N 35°58' W 005°36'1 9.4
2018-Feb-13 22:30N 35°58' W 005°35'5 9.4
2018-Feb-13 22:00N 35°59' W 005°30'4 8.4
2018-Feb-13 21:31N 35°59' W 005°24'4 8.8
2018-Feb-13 21:00N 35°56' W 005°20'3 5.5
2018-Feb-13 20:29N 35°54' W 005°18'0 0.0
2018-Feb-13 19:59N 35°54' W 005°18'0 0.0
2018-Feb-13 19:29N 35°54' W 005°18'0 0.0
2018-Feb-13 18:59N 35°54' W 005°18'0 0.0
2018-Feb-13 18:29N 35°54' W 005°18'0 0.0
2018-Feb-13 17:59N 35°54' W 005°18'0 0.0
2018-Feb-13 17:31N 35°54' W 005°18'1 1.3
2018-Feb-13 17:01N 35°54' W 005°18'222 8.2
2018-Feb-12 13:56N 37°15' W 001°01'6 9.8
2018-Feb-12 13:18N 37°20' W 000°55'3 9.8
2018-Feb-12 13:01N 37°21' W 000°52'5 9.9
2018-Feb-12 12:31N 37°25' W 000°48'14 9.7
2018-Feb-12 11:01N 37°34' W 000°34'0 9.0
2018-Feb-12 10:58N 37°34' W 000°34'4 8.9
2018-Feb-12 10:31N 37°39' W 000°34'5 9.2
2018-Feb-12 10:00N 37°43' W 000°36'5 9.7
2018-Feb-12 09:29N 37°48' W 000°38'510.0
2018-Feb-12 09:00N 37°52' W 000°39'510.0
2018-Feb-12 08:31N 37°57' W 000°41'1 1.9
2018-Feb-12 07:59N 37°58' W 000°41'0 0.0
2018-Feb-12 07:29N 37°58' W 000°41'0 0.0
2018-Feb-12 06:59N 37°58' W 000°41'0 0.0
2018-Feb-12 06:29N 37°58' W 000°41'0 0.0
2018-Feb-12 05:59N 37°58' W 000°41'0 0.0
2018-Feb-12 05:29N 37°58' W 000°41'0 0.0
2018-Feb-12 04:59N 37°58' W 000°41'0 0.0
2018-Feb-12 04:29N 37°58' W 000°41'0 0.0
2018-Feb-12 03:59N 37°58' W 000°41'0 0.0
2018-Feb-12 03:29N 37°58' W 000°41'0 0.0
2018-Feb-12 02:59N 37°58' W 000°41'0 0.0
2018-Feb-12 02:29N 37°58' W 000°41'0 0.0
2018-Feb-12 01:59N 37°58' W 000°41'0 0.0
2018-Feb-12 01:29N 37°58' W 000°41'0 0.0
2018-Feb-12 00:59N 37°58' W 000°41'0 0.0
2018-Feb-12 00:29N 37°58' W 000°41'0 0.0
2018-Feb-11 23:59N 37°58' W 000°41'0 0.0
2018-Feb-11 23:29N 37°58' W 000°41'0 0.0
2018-Feb-11 22:59N 37°58' W 000°41'0 0.0
2018-Feb-11 22:23N 37°58' W 000°41'0 0.0
2018-Feb-11 21:29N 37°58' W 000°41'0 0.0
2018-Feb-11 20:59N 37°58' W 000°41'0 0.0
2018-Feb-11 20:29N 37°58' W 000°41'0 0.0
2018-Feb-11 19:59N 37°58' W 000°41'0 0.0
2018-Feb-11 19:29N 37°58' W 000°41'0 0.0
2018-Feb-11 18:59N 37°58' W 000°41'0 0.0
2018-Feb-11 18:29N 37°58' W 000°41'0 0.0
2018-Feb-11 17:59N 37°58' W 000°41'0 0.0
2018-Feb-11 17:29N 37°58' W 000°41'0 0.0
2018-Feb-11 16:59N 37°58' W 000°41'0 0.0
2018-Feb-11 16:29N 37°58' W 000°41'0 0.0
2018-Feb-11 15:59N 37°58' W 000°41'0 0.0
2018-Feb-11 15:29N 37°58' W 000°41'0 0.0
2018-Feb-11 14:59N 37°58' W 000°41'0 0.0
2018-Feb-11 14:29N 37°58' W 000°41'0 0.0
2018-Feb-11 13:59N 37°58' W 000°41'0 0.0
2018-Feb-11 13:29N 37°58' W 000°41'0 0.0
2018-Feb-11 12:59N 37°58' W 000°41'0 0.0
2018-Feb-11 12:29N 37°58' W 000°41'0 0.0
2018-Feb-11 11:59N 37°58' W 000°41'0 0.0
2018-Feb-11 11:29N 37°58' W 000°41'0 0.0
2018-Feb-11 10:59N 37°58' W 000°41'0 0.0
2018-Feb-11 10:29N 37°58' W 000°41'0 0.0
2018-Feb-11 09:59N 37°58' W 000°41'0 0.0
2018-Feb-11 09:29N 37°58' W 000°41'0 0.0
2018-Feb-11 08:59N 37°58' W 000°41'0 0.0
2018-Feb-11 08:29N 37°58' W 000°41'0 0.0
2018-Feb-11 07:59N 37°58' W 000°41'0 0.0
2018-Feb-11 07:29N 37°58' W 000°41'0 0.0
2018-Feb-11 06:47N 37°58' W 000°41'0 0.0
2018-Feb-11 06:29N 37°58' W 000°41'0 0.0
2018-Feb-11 05:59N 37°58' W 000°41'0 0.0
2018-Feb-11 05:29N 37°58' W 000°41'0 0.0
2018-Feb-11 04:59N 37°58' W 000°41'0 0.0
2018-Feb-11 04:29N 37°58' W 000°41'0 0.0
2018-Feb-11 03:59N 37°58' W 000°41'0 0.0
2018-Feb-11 03:17N 37°58' W 000°41'0 0.0
2018-Feb-11 02:59N 37°58' W 000°41'0 0.0
2018-Feb-11 02:29N 37°58' W 000°41'0 0.0
2018-Feb-11 01:59N 37°58' W 000°41'0 0.0
2018-Feb-11 01:29N 37°58' W 000°41'0 0.0
2018-Feb-11 00:59N 37°58' W 000°41'0 0.0
2018-Feb-11 00:29N 37°58' W 000°41'0 0.0
2018-Feb-10 23:59N 37°58' W 000°41'0 0.0
2018-Feb-10 23:29N 37°58' W 000°41'0 0.0
2018-Feb-10 22:53N 37°58' W 000°41'0 0.0
2018-Feb-10 22:29N 37°58' W 000°41'0 0.0
2018-Feb-10 21:35N 37°58' W 000°41'0 0.0
2018-Feb-10 21:29N 37°58' W 000°41'0 0.0
2018-Feb-10 20:59N 37°58' W 000°41'0 0.0
2018-Feb-10 20:29N 37°58' W 000°41'0 0.0
2018-Feb-10 19:59N 37°58' W 000°41'0 0.0
2018-Feb-10 19:29N 37°58' W 000°41'0 0.0
2018-Feb-10 18:59N 37°58' W 000°41'0 0.0
2018-Feb-10 18:29N 37°58' W 000°41'0 0.0
2018-Feb-10 17:59N 37°58' W 000°41'0 0.0
2018-Feb-10 17:29N 37°58' W 000°41'0 0.0
2018-Feb-10 16:59N 37°58' W 000°41'0 0.0
2018-Feb-10 16:29N 37°58' W 000°41'0 0.0
2018-Feb-10 15:59N 37°58' W 000°41'0 0.0
2018-Feb-10 15:29N 37°58' W 000°41'0 0.0
2018-Feb-10 14:59N 37°58' W 000°41'0 0.0
2018-Feb-10 14:29N 37°58' W 000°41'0 0.0
2018-Feb-10 13:59N 37°58' W 000°41'0 0.0
2018-Feb-10 13:29N 37°58' W 000°41'0 0.0
2018-Feb-10 12:59N 37°58' W 000°41'0 0.0
2018-Feb-10 12:29N 37°58' W 000°41'0 0.0
2018-Feb-10 11:59N 37°58' W 000°41'0 0.0
2018-Feb-10 11:23N 37°58' W 000°41'0 0.0
2018-Feb-10 10:59N 37°58' W 000°41'0 0.0
2018-Feb-10 10:29N 37°58' W 000°41'0 0.0
2018-Feb-10 09:59N 37°58' W 000°41'0 0.0
2018-Feb-10 09:29N 37°58' W 000°41'0 1.0
2018-Feb-10 09:00N 37°58' W 000°41'0 0.7
2018-Feb-10 08:26N 37°57' W 000°41'0 0.1
2018-Feb-10 08:01N 37°58' W 000°41'5 9.5
2018-Feb-10 07:31N 37°60' W 000°35'611.4
2018-Feb-10 07:01N 38°04' W 000°30'  
2018-Feb-07 09:29N 44°19' E 008°30'0 0.0
2018-Feb-07 08:59N 44°19' E 008°30'0 0.0
2018-Feb-07 08:29N 44°19' E 008°30'0 0.0
2018-Feb-07 07:59N 44°19' E 008°30'0 0.0
2018-Feb-07 07:29N 44°19' E 008°30'0 0.0
2018-Feb-07 06:59N 44°19' E 008°30'0 0.0
2018-Feb-07 06:29N 44°19' E 008°30'0 0.0
2018-Feb-07 05:59N 44°19' E 008°30'0 0.0
2018-Feb-07 05:29N 44°19' E 008°30'0 0.0
2018-Feb-07 04:59N 44°19' E 008°30'0 0.0
2018-Feb-07 04:29N 44°19' E 008°30'0 0.0
2018-Feb-07 03:59N 44°19' E 008°30'0 0.0
2018-Feb-07 03:29N 44°19' E 008°30'0 0.0
2018-Feb-07 02:59N 44°19' E 008°30'0 0.0
2018-Feb-07 02:29N 44°19' E 008°30'0 0.0
2018-Feb-07 01:59N 44°19' E 008°30'0 0.0
2018-Feb-07 01:23N 44°19' E 008°30'0 0.0
2018-Feb-07 00:59N 44°19' E 008°30'0 0.0
2018-Feb-07 00:29N 44°19' E 008°30'0 0.0
2018-Feb-06 23:59N 44°19' E 008°30'0 0.0
2018-Feb-06 23:29N 44°19' E 008°30'0 0.0
2018-Feb-06 22:59N 44°19' E 008°30'0 0.0
2018-Feb-06 22:29N 44°19' E 008°30'0 0.0
2018-Feb-06 21:59N 44°19' E 008°30'0 0.0
2018-Feb-06 21:29N 44°19' E 008°30'0 0.0
2018-Feb-06 20:59N 44°19' E 008°30'0 0.0
2018-Feb-06 20:29N 44°19' E 008°30'0 0.0
2018-Feb-06 19:59N 44°19' E 008°30'0 0.0
2018-Feb-06 19:29N 44°19' E 008°30'0 0.0
2018-Feb-06 18:59N 44°19' E 008°30'0 0.0
2018-Feb-06 18:29N 44°19' E 008°30'0 0.0
2018-Feb-06 17:59N 44°19' E 008°30'0 0.0
2018-Feb-06 17:29N 44°19' E 008°30'0 0.0
2018-Feb-06 16:59N 44°19' E 008°30'0 0.0
2018-Feb-06 16:29N 44°19' E 008°30'0 0.0
2018-Feb-06 15:59N 44°19' E 008°30'0 0.0
2018-Feb-06 15:29N 44°19' E 008°30'0 0.0
2018-Feb-06 14:59N 44°19' E 008°30'0 0.0
2018-Feb-06 14:29N 44°19' E 008°30'0 0.0
2018-Feb-06 13:59N 44°19' E 008°30'0 0.0
2018-Feb-06 13:29N 44°19' E 008°30'0 0.0
2018-Feb-06 12:59N 44°19' E 008°30'0 0.0
2018-Feb-06 12:29N 44°19' E 008°30'0 0.0
2018-Feb-06 11:59N 44°19' E 008°30'0 0.0
2018-Feb-06 11:23N 44°19' E 008°30'0 0.0
2018-Feb-06 10:59N 44°19' E 008°30'0 0.0
2018-Feb-06 10:29N 44°19' E 008°30'0 0.0
2018-Feb-06 09:17N 44°19' E 008°30'0 0.0
2018-Feb-06 08:59N 44°19' E 008°30'0 0.0
2018-Feb-06 08:29N 44°19' E 008°30'0 0.0
2018-Feb-06 07:59N 44°19' E 008°30'0 0.0
2018-Feb-06 07:17N 44°19' E 008°30'0 0.0
2018-Feb-06 06:59N 44°19' E 008°30'0 0.0
2018-Feb-06 06:29N 44°19' E 008°30'0 0.0
2018-Feb-06 05:59N 44°19' E 008°30'0 0.0
2018-Feb-06 05:29N 44°19' E 008°30'0 0.0
2018-Feb-06 04:59N 44°19' E 008°30'0 0.0
2018-Feb-06 04:29N 44°19' E 008°30'0 0.0
2018-Feb-06 03:59N 44°19' E 008°30'0 0.0
2018-Feb-06 03:29N 44°19' E 008°30'0 0.0
2018-Feb-06 02:59N 44°19' E 008°30'0 0.0
2018-Feb-06 02:29N 44°19' E 008°30'0 0.0
2018-Feb-06 01:59N 44°19' E 008°30'0 0.0
2018-Feb-06 01:29N 44°19' E 008°30'0 0.0
2018-Feb-06 00:59N 44°19' E 008°30'0 0.0
2018-Feb-06 00:29N 44°19' E 008°30'0 0.0
2018-Feb-05 23:59N 44°19' E 008°30'0 0.0
2018-Feb-05 23:29N 44°19' E 008°30'0 0.0
2018-Feb-05 22:59N 44°19' E 008°30'0 0.0
2018-Feb-05 22:29N 44°19' E 008°30'0 0.0
2018-Feb-05 21:59N 44°19' E 008°30'0 0.0
2018-Feb-05 21:29N 44°19' E 008°30'0 0.0
2018-Feb-05 20:59N 44°19' E 008°30'0 0.0
2018-Feb-05 20:29N 44°19' E 008°30'0 0.0
2018-Feb-05 19:59N 44°19' E 008°30'0 0.0
2018-Feb-05 19:29N 44°19' E 008°30'0 0.0
2018-Feb-05 18:59N 44°19' E 008°30'0 0.0
2018-Feb-05 18:29N 44°19' E 008°30'0 0.0
2018-Feb-05 17:59N 44°19' E 008°30'0 0.0
2018-Feb-05 17:29N 44°19' E 008°30'0 0.0
2018-Feb-05 16:59N 44°19' E 008°30'0 0.0
2018-Feb-05 16:29N 44°19' E 008°30'0 0.0
2018-Feb-05 15:59N 44°19' E 008°30'0 0.0
2018-Feb-05 15:29N 44°19' E 008°30'0 0.0
2018-Feb-05 14:59N 44°19' E 008°30'0 0.0
2018-Feb-05 14:29N 44°19' E 008°30'0 0.0
2018-Feb-05 13:59N 44°19' E 008°30'0 0.0
2018-Feb-05 13:23N 44°19' E 008°30'0 0.0
2018-Feb-05 12:59N 44°19' E 008°30'0 0.0
2018-Feb-05 12:29N 44°19' E 008°30'  
Track history (hours):
 
Tides and Currents Weather Stations Pressure Air Temp Water Temp Dewpoint Dewpoint Depression Visibility Wind Speed Wind Dir Waves Ship Positions

Wilson Gaeta

Last reported at 2018-Feb-15 12:16 UTC. Time now 2018-Feb-19 00:19 UTC.
Position N 39°24' W 009°51'.

Length 88 m; draft 5.5 m.

Type: Ship. MMSI: 314237000.

Date/timePositionNaut miles runAvg speedWind from/ knotsBaromVisibWave heightAir tempDewpointWater temp
2018-Feb-15 12:16N 39°24' W 009°51'3 8.9
2018-Feb-15 11:53N 39°21' W 009°51'4 9.4
2018-Feb-15 11:30N 39°17' W 009°51'5 9.2
2018-Feb-15 11:00N 39°13' W 009°51'5 9.1
2018-Feb-15 10:30N 39°08' W 009°51'4 9.0
2018-Feb-15 10:01N 39°04' W 009°51'5 9.1
2018-Feb-15 09:30N 38°59' W 009°52'5 9.4
2018-Feb-15 08:59N 38°55' W 009°52'4 9.1
2018-Feb-15 08:30N 38°50' W 009°52'5 9.1
2018-Feb-15 08:00N 38°46' W 009°52'4 9.0
2018-Feb-15 07:31N 38°41' W 009°51'5 9.3
2018-Feb-15 07:00N 38°37' W 009°50'5 9.2
2018-Feb-15 06:30N 38°32' W 009°48'5 9.1
2018-Feb-15 06:00N 38°28' W 009°47'4 8.7
2018-Feb-15 05:30N 38°23' W 009°46'5 8.8
2018-Feb-15 04:54N 38°18' W 009°44'4 8.8
2018-Feb-15 04:28N 38°14' W 009°43'240 8.0
2018-Feb-13 22:36N 35°58' W 005°36'1 9.4
2018-Feb-13 22:30N 35°58' W 005°35'5 9.4
2018-Feb-13 22:00N 35°59' W 005°30'4 8.4
2018-Feb-13 21:31N 35°59' W 005°24'4 8.8
2018-Feb-13 21:00N 35°56' W 005°20'3 5.5
2018-Feb-13 20:29N 35°54' W 005°18'0 0.0
2018-Feb-13 19:59N 35°54' W 005°18'0 0.0
2018-Feb-13 19:29N 35°54' W 005°18'0 0.0
2018-Feb-13 18:59N 35°54' W 005°18'0 0.0
2018-Feb-13 18:29N 35°54' W 005°18'0 0.0
2018-Feb-13 17:59N 35°54' W 005°18'0 0.0
2018-Feb-13 17:31N 35°54' W 005°18'1 1.3
2018-Feb-13 17:01N 35°54' W 005°18'222 8.2
2018-Feb-12 13:56N 37°15' W 001°01'6 9.8
2018-Feb-12 13:18N 37°20' W 000°55'3 9.8
2018-Feb-12 13:01N 37°21' W 000°52'5 9.9
2018-Feb-12 12:31N 37°25' W 000°48'14 9.7
2018-Feb-12 11:01N 37°34' W 000°34'0 9.0
2018-Feb-12 10:58N 37°34' W 000°34'4 8.9
2018-Feb-12 10:31N 37°39' W 000°34'5 9.2
2018-Feb-12 10:00N 37°43' W 000°36'5 9.7
2018-Feb-12 09:29N 37°48' W 000°38'510.0
2018-Feb-12 09:00N 37°52' W 000°39'510.0
2018-Feb-12 08:31N 37°57' W 000°41'1 1.9
2018-Feb-12 07:59N 37°58' W 000°41'0 0.0
2018-Feb-12 07:29N 37°58' W 000°41'0 0.0
2018-Feb-12 06:59N 37°58' W 000°41'0 0.0
2018-Feb-12 06:29N 37°58' W 000°41'0 0.0
2018-Feb-12 05:59N 37°58' W 000°41'0 0.0
2018-Feb-12 05:29N 37°58' W 000°41'0 0.0
2018-Feb-12 04:59N 37°58' W 000°41'0 0.0
2018-Feb-12 04:29N 37°58' W 000°41'0 0.0
2018-Feb-12 03:59N 37°58' W 000°41'0 0.0
2018-Feb-12 03:29N 37°58' W 000°41'0 0.0
2018-Feb-12 02:59N 37°58' W 000°41'0 0.0
2018-Feb-12 02:29N 37°58' W 000°41'0 0.0
2018-Feb-12 01:59N 37°58' W 000°41'0 0.0
2018-Feb-12 01:29N 37°58' W 000°41'0 0.0
2018-Feb-12 00:59N 37°58' W 000°41'0 0.0
2018-Feb-12 00:29N 37°58' W 000°41'0 0.0
2018-Feb-11 23:59N 37°58' W 000°41'0 0.0
2018-Feb-11 23:29N 37°58' W 000°41'0 0.0
2018-Feb-11 22:59N 37°58' W 000°41'0 0.0
2018-Feb-11 22:23N 37°58' W 000°41'0 0.0
2018-Feb-11 21:29N 37°58' W 000°41'0 0.0
2018-Feb-11 20:59N 37°58' W 000°41'0 0.0
2018-Feb-11 20:29N 37°58' W 000°41'0 0.0
2018-Feb-11 19:59N 37°58' W 000°41'0 0.0
2018-Feb-11 19:29N 37°58' W 000°41'0 0.0
2018-Feb-11 18:59N 37°58' W 000°41'0 0.0
2018-Feb-11 18:29N 37°58' W 000°41'0 0.0
2018-Feb-11 17:59N 37°58' W 000°41'0 0.0
2018-Feb-11 17:29N 37°58' W 000°41'0 0.0
2018-Feb-11 16:59N 37°58' W 000°41'0 0.0
2018-Feb-11 16:29N 37°58' W 000°41'0 0.0
2018-Feb-11 15:59N 37°58' W 000°41'0 0.0
2018-Feb-11 15:29N 37°58' W 000°41'0 0.0
2018-Feb-11 14:59N 37°58' W 000°41'0 0.0
2018-Feb-11 14:29N 37°58' W 000°41'0 0.0
2018-Feb-11 13:59N 37°58' W 000°41'0 0.0
2018-Feb-11 13:29N 37°58' W 000°41'0 0.0
2018-Feb-11 12:59N 37°58' W 000°41'0 0.0
2018-Feb-11 12:29N 37°58' W 000°41'0 0.0
2018-Feb-11 11:59N 37°58' W 000°41'0 0.0
2018-Feb-11 11:29N 37°58' W 000°41'0 0.0
2018-Feb-11 10:59N 37°58' W 000°41'0 0.0
2018-Feb-11 10:29N 37°58' W 000°41'0 0.0
2018-Feb-11 09:59N 37°58' W 000°41'0 0.0
2018-Feb-11 09:29N 37°58' W 000°41'0 0.0
2018-Feb-11 08:59N 37°58' W 000°41'0 0.0
2018-Feb-11 08:29N 37°58' W 000°41'0 0.0
2018-Feb-11 07:59N 37°58' W 000°41'0 0.0
2018-Feb-11 07:29N 37°58' W 000°41'0 0.0
2018-Feb-11 06:47N 37°58' W 000°41'0 0.0
2018-Feb-11 06:29N 37°58' W 000°41'0 0.0
2018-Feb-11 05:59N 37°58' W 000°41'0 0.0
2018-Feb-11 05:29N 37°58' W 000°41'0 0.0
2018-Feb-11 04:59N 37°58' W 000°41'0 0.0
2018-Feb-11 04:29N 37°58' W 000°41'0 0.0
2018-Feb-11 03:59N 37°58' W 000°41'0 0.0
2018-Feb-11 03:17N 37°58' W 000°41'0 0.0
2018-Feb-11 02:59N 37°58' W 000°41'0 0.0
2018-Feb-11 02:29N 37°58' W 000°41'0 0.0
2018-Feb-11 01:59N 37°58' W 000°41'0 0.0
2018-Feb-11 01:29N 37°58' W 000°41'0 0.0
2018-Feb-11 00:59N 37°58' W 000°41'0 0.0
2018-Feb-11 00:29N 37°58' W 000°41'0 0.0
2018-Feb-10 23:59N 37°58' W 000°41'0 0.0
2018-Feb-10 23:29N 37°58' W 000°41'0 0.0
2018-Feb-10 22:53N 37°58' W 000°41'0 0.0
2018-Feb-10 22:29N 37°58' W 000°41'0 0.0
2018-Feb-10 21:35N 37°58' W 000°41'0 0.0
2018-Feb-10 21:29N 37°58' W 000°41'0 0.0
2018-Feb-10 20:59N 37°58' W 000°41'0 0.0
2018-Feb-10 20:29N 37°58' W 000°41'0 0.0
2018-Feb-10 19:59N 37°58' W 000°41'0 0.0
2018-Feb-10 19:29N 37°58' W 000°41'0 0.0
2018-Feb-10 18:59N 37°58' W 000°41'0 0.0
2018-Feb-10 18:29N 37°58' W 000°41'0 0.0
2018-Feb-10 17:59N 37°58' W 000°41'0 0.0
2018-Feb-10 17:29N 37°58' W 000°41'0 0.0
2018-Feb-10 16:59N 37°58' W 000°41'0 0.0
2018-Feb-10 16:29N 37°58' W 000°41'0 0.0
2018-Feb-10 15:59N 37°58' W 000°41'0 0.0
2018-Feb-10 15:29N 37°58' W 000°41'0 0.0
2018-Feb-10 14:59N 37°58' W 000°41'0 0.0
2018-Feb-10 14:29N 37°58' W 000°41'0 0.0
2018-Feb-10 13:59N 37°58' W 000°41'0 0.0
2018-Feb-10 13:29N 37°58' W 000°41'0 0.0
2018-Feb-10 12:59N 37°58' W 000°41'0 0.0
2018-Feb-10 12:29N 37°58' W 000°41'0 0.0
2018-Feb-10 11:59N 37°58' W 000°41'0 0.0
2018-Feb-10 11:23N 37°58' W 000°41'0 0.0
2018-Feb-10 10:59N 37°58' W 000°41'0 0.0
2018-Feb-10 10:29N 37°58' W 000°41'0 0.0
2018-Feb-10 09:59N 37°58' W 000°41'0 0.0
2018-Feb-10 09:29N 37°58' W 000°41'0 1.0
2018-Feb-10 09:00N 37°58' W 000°41'0 0.7
2018-Feb-10 08:26N 37°57' W 000°41'0 0.1
2018-Feb-10 08:01N 37°58' W 000°41'5 9.5
2018-Feb-10 07:31N 37°60' W 000°35'611.4
2018-Feb-10 07:01N 38°04' W 000°30'  
2018-Feb-07 09:29N 44°19' E 008°30'0 0.0
2018-Feb-07 08:59N 44°19' E 008°30'0 0.0
2018-Feb-07 08:29N 44°19' E 008°30'0 0.0
2018-Feb-07 07:59N 44°19' E 008°30'0 0.0
2018-Feb-07 07:29N 44°19' E 008°30'0 0.0
2018-Feb-07 06:59N 44°19' E 008°30'0 0.0
2018-Feb-07 06:29N 44°19' E 008°30'0 0.0
2018-Feb-07 05:59N 44°19' E 008°30'0 0.0
2018-Feb-07 05:29N 44°19' E 008°30'0 0.0
2018-Feb-07 04:59N 44°19' E 008°30'0 0.0
2018-Feb-07 04:29N 44°19' E 008°30'0 0.0
2018-Feb-07 03:59N 44°19' E 008°30'0 0.0
2018-Feb-07 03:29N 44°19' E 008°30'0 0.0
2018-Feb-07 02:59N 44°19' E 008°30'0 0.0
2018-Feb-07 02:29N 44°19' E 008°30'0 0.0
2018-Feb-07 01:59N 44°19' E 008°30'0 0.0
2018-Feb-07 01:23N 44°19' E 008°30'0 0.0
2018-Feb-07 00:59N 44°19' E 008°30'0 0.0
2018-Feb-07 00:29N 44°19' E 008°30'0 0.0
2018-Feb-06 23:59N 44°19' E 008°30'0 0.0
2018-Feb-06 23:29N 44°19' E 008°30'0 0.0
2018-Feb-06 22:59N 44°19' E 008°30'0 0.0
2018-Feb-06 22:29N 44°19' E 008°30'0 0.0
2018-Feb-06 21:59N 44°19' E 008°30'0 0.0
2018-Feb-06 21:29N 44°19' E 008°30'0 0.0
2018-Feb-06 20:59N 44°19' E 008°30'0 0.0
2018-Feb-06 20:29N 44°19' E 008°30'0 0.0
2018-Feb-06 19:59N 44°19' E 008°30'0 0.0
2018-Feb-06 19:29N 44°19' E 008°30'0 0.0
2018-Feb-06 18:59N 44°19' E 008°30'0 0.0
2018-Feb-06 18:29N 44°19' E 008°30'0 0.0
2018-Feb-06 17:59N 44°19' E 008°30'0 0.0
2018-Feb-06 17:29N 44°19' E 008°30'0 0.0
2018-Feb-06 16:59N 44°19' E 008°30'0 0.0
2018-Feb-06 16:29N 44°19' E 008°30'0 0.0
2018-Feb-06 15:59N 44°19' E 008°30'0 0.0
2018-Feb-06 15:29N 44°19' E 008°30'0 0.0
2018-Feb-06 14:59N 44°19' E 008°30'0 0.0
2018-Feb-06 14:29N 44°19' E 008°30'0 0.0
2018-Feb-06 13:59N 44°19' E 008°30'0 0.0
2018-Feb-06 13:29N 44°19' E 008°30'0 0.0
2018-Feb-06 12:59N 44°19' E 008°30'0 0.0
2018-Feb-06 12:29N 44°19' E 008°30'0 0.0
2018-Feb-06 11:59N 44°19' E 008°30'0 0.0
2018-Feb-06 11:23N 44°19' E 008°30'0 0.0
2018-Feb-06 10:59N 44°19' E 008°30'0 0.0
2018-Feb-06 10:29N 44°19' E 008°30'0 0.0
2018-Feb-06 09:17N 44°19' E 008°30'0 0.0
2018-Feb-06 08:59N 44°19' E 008°30'0 0.0
2018-Feb-06 08:29N 44°19' E 008°30'0 0.0
2018-Feb-06 07:59N 44°19' E 008°30'0 0.0
2018-Feb-06 07:17N 44°19' E 008°30'0 0.0
2018-Feb-06 06:59N 44°19' E 008°30'0 0.0
2018-Feb-06 06:29N 44°19' E 008°30'0 0.0
2018-Feb-06 05:59N 44°19' E 008°30'0 0.0
2018-Feb-06 05:29N 44°19' E 008°30'0 0.0
2018-Feb-06 04:59N 44°19' E 008°30'0 0.0
2018-Feb-06 04:29N 44°19' E 008°30'0 0.0
2018-Feb-06 03:59N 44°19' E 008°30'0 0.0
2018-Feb-06 03:29N 44°19' E 008°30'0 0.0
2018-Feb-06 02:59N 44°19' E 008°30'0 0.0
2018-Feb-06 02:29N 44°19' E 008°30'0 0.0
2018-Feb-06 01:59N 44°19' E 008°30'0 0.0
2018-Feb-06 01:29N 44°19' E 008°30'0 0.0
2018-Feb-06 00:59N 44°19' E 008°30'0 0.0
2018-Feb-06 00:29N 44°19' E 008°30'0 0.0
2018-Feb-05 23:59N 44°19' E 008°30'0 0.0
2018-Feb-05 23:29N 44°19' E 008°30'0 0.0
2018-Feb-05 22:59N 44°19' E 008°30'0 0.0
2018-Feb-05 22:29N 44°19' E 008°30'0 0.0
2018-Feb-05 21:59N 44°19' E 008°30'0 0.0
2018-Feb-05 21:29N 44°19' E 008°30'0 0.0
2018-Feb-05 20:59N 44°19' E 008°30'0 0.0
2018-Feb-05 20:29N 44°19' E 008°30'0 0.0
2018-Feb-05 19:59N 44°19' E 008°30'0 0.0
2018-Feb-05 19:29N 44°19' E 008°30'0 0.0
2018-Feb-05 18:59N 44°19' E 008°30'0 0.0
2018-Feb-05 18:29N 44°19' E 008°30'0 0.0
2018-Feb-05 17:59N 44°19' E 008°30'0 0.0
2018-Feb-05 17:29N 44°19' E 008°30'0 0.0
2018-Feb-05 16:59N 44°19' E 008°30'0 0.0
2018-Feb-05 16:29N 44°19' E 008°30'0 0.0
2018-Feb-05 15:59N 44°19' E 008°30'0 0.0
2018-Feb-05 15:29N 44°19' E 008°30'0 0.0
2018-Feb-05 14:59N 44°19' E 008°30'0 0.0
2018-Feb-05 14:29N 44°19' E 008°30'0 0.0
2018-Feb-05 13:59N 44°19' E 008°30'0 0.0
2018-Feb-05 13:23N 44°19' E 008°30'0 0.0
2018-Feb-05 12:59N 44°19' E 008°30'0 0.0
2018-Feb-05 12:29N 44°19' E 008°30'  

Dump ship's entire track history